Time;durP1;ratioP1;P1;durP2;ratioP2;P2;SDS_P1;SDS_P2;PMS_P1;PMS_P2;Temp;Humidity;BMP_temperature;BMP_pressure;BME280_temperature;BME280_humidity;BME280_pressure;Samples;Min_cycle;Max_cycle;Signal;HPM_P1;HPM_P2
2023/10/29 00:00:17;;;;;;;1.40;0.60;;;;;;;12.19;74.96;97726.67;108988;1256;72785;-88
2023/10/29 00:02:44;;;;;;;0.80;0.70;;;;;;;12.15;74.82;97724.40;109122;1256;74266;-89
2023/10/29 00:05:12;;;;;;;1.60;1.00;;;;;;;12.13;74.80;97721.56;108996;1256;73990;-87
2023/10/29 00:07:39;;;;;;;1.10;0.70;;;;;;;12.12;75.20;97729.38;108914;1257;60744;-88
2023/10/29 00:10:07;;;;;;;2.10;0.70;;;;;;;12.11;75.30;97733.95;109008;1256;60973;-88
2023/10/29 00:12:35;;;;;;;1.60;0.60;;;;;;;12.09;75.26;97736.63;109037;1256;73393;-87
2023/10/29 00:15:04;;;;;;;1.10;0.80;;;;;;;12.07;75.03;97740.04;109006;1256;73379;-88
2023/10/29 00:17:31;;;;;;;1.50;0.60;;;;;;;12.04;75.02;97742.95;108850;1256;74337;-88
2023/10/29 00:19:59;;;;;;;0.80;0.70;;;;;;;12.04;75.16;97741.38;108910;1257;61661;-88
2023/10/29 00:22:27;;;;;;;0.80;0.60;;;;;;;12.03;75.17;97743.98;108941;1256;59749;-89
2023/10/29 00:24:54;;;;;;;1.10;0.90;;;;;;;12.02;75.39;97740.64;108974;1256;72214;-86
2023/10/29 00:27:21;;;;;;;1.30;0.90;;;;;;;12.02;75.49;97743.89;108998;1256;73373;-88
2023/10/29 00:29:48;;;;;;;1.00;0.90;;;;;;;12.01;75.58;97751.63;108993;1256;72631;-88
2023/10/29 00:32:18;;;;;;;1.20;1.00;;;;;;;12.01;75.54;97750.73;108926;1256;59119;-87
2023/10/29 00:34:47;;;;;;;1.30;0.90;;;;;;;12.00;75.76;97757.52;109087;1256;59203;-86
2023/10/29 00:37:17;;;;;;;1.10;1.00;;;;;;;11.98;75.81;97754.46;108978;1257;72542;-87
2023/10/29 00:39:44;;;;;;;1.00;0.90;;;;;;;11.96;75.95;97751.55;109211;1256;74087;-88
2023/10/29 00:42:11;;;;;;;0.90;0.80;;;;;;;11.95;76.03;97756.00;109093;1256;71448;-87
2023/10/29 00:44:38;;;;;;;1.90;1.00;;;;;;;11.91;76.17;97758.54;109229;1256;60176;-87
2023/10/29 00:47:06;;;;;;;1.20;1.10;;;;;;;11.89;76.26;97758.91;109116;1256;60367;-85
2023/10/29 00:49:33;;;;;;;1.70;1.10;;;;;;;11.86;76.58;97760.95;109119;1256;74048;-88
2023/10/29 00:52:00;;;;;;;1.70;1.20;;;;;;;11.83;76.83;97761.58;109185;1256;72958;-88
2023/10/29 00:54:28;;;;;;;1.30;1.00;;;;;;;11.78;76.86;97756.09;109074;1256;72867;-88
2023/10/29 00:56:56;;;;;;;1.30;1.00;;;;;;;11.74;77.17;97757.52;108972;1256;61935;-87
2023/10/29 00:59:23;;;;;;;0.70;0.50;;;;;;;11.69;77.32;97759.34;109333;1256;58928;-88
2023/10/29 01:01:51;;;;;;;1.20;0.80;;;;;;;11.66;77.51;97759.27;108992;1256;72574;-88
2023/10/29 01:04:20;;;;;;;1.00;0.90;;;;;;;11.61;77.67;97759.11;108995;1256;73211;-88
2023/10/29 01:06:48;;;;;;;1.10;1.00;;;;;;;11.57;77.74;97763.36;108893;1256;73123;-87
2023/10/29 01:09:15;;;;;;;1.60;0.90;;;;;;;11.54;77.84;97765.64;108893;1256;60224;-87
2023/10/29 01:11:43;;;;;;;1.10;0.90;;;;;;;11.49;77.68;97765.27;109046;1256;60005;-88
2023/10/29 01:14:10;;;;;;;0.70;0.70;;;;;;;11.47;77.80;97772.63;109212;1256;72282;-88
2023/10/29 01:16:38;;;;;;;2.50;0.80;;;;;;;11.45;77.66;97772.10;109095;1256;74238;-87
2023/10/29 01:19:06;;;;;;;1.50;0.60;;;;;;;11.42;77.71;97772.86;109189;1256;71437;-87
2023/10/29 01:21:33;;;;;;;0.60;0.60;;;;;;;11.41;77.76;97773.73;109038;1256;59077;-88
2023/10/29 01:24:02;;;;;;;1.50;0.40;;;;;;;11.38;77.78;97772.65;108964;1256;60674;-87
2023/10/29 01:26:29;;;;;;;0.70;0.50;;;;;;;11.36;77.56;97768.02;108900;1257;73572;-88
2023/10/29 01:28:56;;;;;;;0.80;0.60;;;;;;;11.34;77.45;97764.56;108965;1256;73954;-87
2023/10/29 01:31:24;;;;;;;0.90;0.50;;;;;;;11.34;77.41;97765.35;109155;1256;71675;-88
2023/10/29 01:33:51;;;;;;;3.60;0.60;;;;;;;11.33;77.24;97775.04;108922;1256;59072;-87
2023/10/29 01:36:18;;;;;;;4.00;1.20;;;;;;;11.31;77.14;97772.70;108967;1256;61062;-88
2023/10/29 01:38:46;;;;;;;1.40;0.60;;;;;;;11.31;77.22;97772.21;108957;1256;73562;-89
2023/10/29 01:41:13;;;;;;;1.20;0.60;;;;;;;11.30;77.31;97770.84;109000;1256;74162;-89
2023/10/29 01:43:41;;;;;;;1.00;0.70;;;;;;;11.29;77.31;97768.05;108978;1256;73678;-88
2023/10/29 01:46:08;;;;;;;1.00;0.70;;;;;;;11.28;77.30;97766.16;108974;1256;61925;-87
2023/10/29 01:48:35;;;;;;;2.60;0.90;;;;;;;11.27;77.53;97767.65;109005;1256;59939;-87
2023/10/29 01:51:06;;;;;;;0.80;0.60;;;;;;;11.26;77.69;97772.28;108962;1256;73135;-87
2023/10/29 01:53:33;;;;;;;1.60;0.80;;;;;;;11.25;77.62;97786.34;108908;1256;73438;-87
2023/10/29 01:56:00;;;;;;;1.70;0.90;;;;;;;11.24;77.57;97792.34;108910;1256;71362;-88
2023/10/29 01:58:28;;;;;;;1.60;1.10;;;;;;;11.23;77.61;97796.17;108947;1256;60014;-86
2023/10/29 02:00:55;;;;;;;2.00;0.80;;;;;;;11.22;77.66;97794.41;108910;1257;60097;-87
2023/10/29 02:03:23;;;;;;;1.70;0.70;;;;;;;11.21;77.80;97787.16;109214;1256;73077;-87
2023/10/29 02:05:50;;;;;;;0.80;0.70;;;;;;;11.20;77.84;97785.42;109262;1256;73056;-88
2023/10/29 02:08:18;;;;;;;0.70;0.60;;;;;;;11.21;77.84;97785.73;109277;1256;71492;-86
2023/10/29 02:10:46;;;;;;;2.50;1.00;;;;;;;11.22;77.89;97793.16;109253;1256;58412;-89
2023/10/29 02:13:15;;;;;;;1.30;0.90;;;;;;;11.23;78.01;97795.27;109252;1256;60903;-88
2023/10/29 02:15:42;;;;;;;1.70;0.80;;;;;;;11.22;78.32;97794.76;109267;1256;72338;-88
2023/10/29 02:18:11;;;;;;;2.20;0.80;;;;;;;11.20;78.35;97794.75;108941;1257;74287;-87
2023/10/29 02:20:39;;;;;;;3.40;1.10;;;;;;;11.18;78.59;97794.05;109000;1256;72697;-88
2023/10/29 02:23:06;;;;;;;2.20;0.90;;;;;;;11.15;78.98;97796.03;108945;1256;60363;-87
2023/10/29 02:25:34;;;;;;;1.00;0.70;;;;;;;11.12;79.35;97799.00;108912;1256;60280;-88
2023/10/29 02:28:03;;;;;;;3.50;1.00;;;;;;;11.08;79.93;97791.61;108902;1256;74663;-88
2023/10/29 02:30:30;;;;;;;3.00;1.00;;;;;;;11.05;80.39;97794.94;108987;1256;72364;-87
2023/10/29 02:32:57;;;;;;;1.70;1.10;;;;;;;11.01;80.89;97796.09;109005;1257;72776;-88
2023/10/29 02:35:24;;;;;;;2.00;0.90;;;;;;;10.97;81.33;97795.89;109028;1256;59043;-88
2023/10/29 02:37:52;;;;;;;2.60;1.10;;;;;;;10.94;81.80;97795.81;109160;1256;59093;-88
2023/10/29 02:40:19;;;;;;;2.70;1.00;;;;;;;10.91;82.07;97793.57;109351;1256;72808;-89
2023/10/29 02:42:46;;;;;;;1.60;1.00;;;;;;;10.88;82.25;97796.85;109156;1256;73665;-87
2023/10/29 02:45:14;;;;;;;2.00;1.30;;;;;;;10.84;82.55;97794.06;109035;1256;72535;-88
2023/10/29 02:47:41;;;;;;;2.30;1.10;;;;;;;10.81;83.00;97792.70;108924;1255;61539;-87
2023/10/29 02:50:08;;;;;;;2.90;1.40;;;;;;;10.78;83.30;97793.83;109122;1255;59316;-88
2023/10/29 02:52:35;;;;;;;4.10;1.00;;;;;;;10.74;83.56;97795.08;109033;1256;73788;-87
2023/10/29 02:55:06;;;;;;;2.80;1.20;;;;;;;10.71;83.96;97800.69;109369;1256;73496;-88
2023/10/29 02:57:33;;;;;;;2.60;0.90;;;;;;;10.66;84.37;97799.80;109116;1254;70709;-87
2023/10/29 03:00:01;;;;;;;2.30;0.90;;;;;;;10.63;84.71;97803.98;109290;1255;59080;-87
2023/10/29 03:02:28;;;;;;;2.40;1.20;;;;;;;10.59;85.21;97806.27;109022;1256;60251;-87
2023/10/29 03:04:56;;;;;;;0.90;0.90;;;;;;;10.55;85.63;97803.52;109019;1255;72621;-88
2023/10/29 03:07:24;;;;;;;1.00;0.90;;;;;;;10.52;85.67;97815.59;109010;1256;75721;-87
2023/10/29 03:09:51;;;;;;;1.70;0.80;;;;;;;10.49;85.41;97821.17;109085;1255;72541;-88
2023/10/29 03:12:18;;;;;;;1.40;1.00;;;;;;;10.49;84.93;97823.70;109084;1256;59997;-88
2023/10/29 03:14:46;;;;;;;1.60;1.00;;;;;;;10.49;84.62;97826.56;108942;1255;58979;-89
2023/10/29 03:17:13;;;;;;;2.00;0.70;;;;;;;10.50;84.13;97830.77;109182;1254;73617;-88
2023/10/29 03:19:41;;;;;;;1.10;0.90;;;;;;;10.51;84.08;97829.80;109048;1255;73939;-89
2023/10/29 03:22:08;;;;;;;2.00;0.90;;;;;;;10.53;84.03;97837.39;109054;1255;71108;-88
2023/10/29 03:24:36;;;;;;;1.70;1.00;;;;;;;10.54;84.15;97837.97;108842;1259;60509;-89
2023/10/29 03:27:03;;;;;;;5.00;0.90;;;;;;;10.56;84.38;97842.70;109081;1256;60253;-89
2023/10/29 03:29:30;;;;;;;2.60;1.80;;;;;;;10.56;84.65;97843.77;108982;1256;72142;-86
2023/10/29 03:31:58;;;;;;;2.30;1.70;;;;;;;10.55;84.89;97851.67;108992;1256;75217;-88
2023/10/29 03:34:25;;;;;;;3.20;2.40;;;;;;;10.54;85.02;97849.81;108953;1255;73514;-89
2023/10/29 03:36:52;;;;;;;2.50;2.20;;;;;;;10.51;85.18;97846.27;108942;1255;60710;-89
2023/10/29 03:39:19;;;;;;;2.40;2.20;;;;;;;10.47;85.54;97845.29;109070;1256;59894;-90
2023/10/29 03:41:46;;;;;;;2.30;2.10;;;;;;;10.45;85.78;97848.52;109136;1256;72632;-88
2023/10/29 03:44:14;;;;;;;3.00;1.80;;;;;;;10.43;86.30;97847.23;108998;1256;73272;-88
2023/10/29 03:46:41;;;;;;;1.60;1.50;;;;;;;10.42;86.81;97846.79;109087;1256;72353;-88
2023/10/29 03:49:08;;;;;;;2.80;1.50;;;;;;;10.42;87.24;97849.65;108986;1255;61097;-88
2023/10/29 03:51:43;;;;;;;4.30;1.40;;;;;;;10.42;87.75;97853.43;108999;1255;60278;-88
2023/10/29 03:54:10;;;;;;;3.70;1.10;;;;;;;10.41;88.16;97859.91;109029;1256;73661;-89
2023/10/29 03:56:37;;;;;;;1.90;1.20;;;;;;;10.42;88.21;97865.23;109098;1256;75198;-88
2023/10/29 03:59:04;;;;;;;2.80;0.90;;;;;;;10.42;88.26;97870.79;108891;1256;70106;-88
2023/10/29 04:01:31;;;;;;;3.40;1.00;;;;;;;10.41;88.15;97873.34;109047;1255;60898;-87
2023/10/29 04:03:59;;;;;;;2.00;1.20;;;;;;;10.40;87.83;97871.45;108992;1255;59101;-87
2023/10/29 04:06:26;;;;;;;2.00;1.30;;;;;;;10.39;87.55;97869.74;109131;1255;72821;-88
2023/10/29 04:08:53;;;;;;;2.40;1.10;;;;;;;10.38;87.84;97867.30;109101;1256;75411;-89
2023/10/29 04:11:20;;;;;;;2.00;1.10;;;;;;;10.38;88.47;97873.05;108993;1256;71608;-87
2023/10/29 04:13:48;;;;;;;2.30;1.10;;;;;;;10.38;88.10;97870.55;108873;1255;60209;-88
2023/10/29 04:16:15;;;;;;;1.90;1.20;;;;;;;10.39;86.77;97868.83;109006;1256;59933;-88
2023/10/29 04:18:42;;;;;;;0.70;0.60;;;;;;;10.43;85.59;97865.13;109136;1255;72950;-90
2023/10/29 04:21:09;;;;;;;0.80;0.60;;;;;;;10.48;84.68;97870.11;108994;1256;74525;-88
2023/10/29 04:23:36;;;;;;;1.00;0.50;;;;;;;10.55;83.94;97874.42;109063;1256;72292;-88
2023/10/29 04:26:04;;;;;;;1.00;0.70;;;;;;;10.61;83.14;97872.31;108955;1256;59007;-88
2023/10/29 04:28:31;;;;;;;0.50;0.50;;;;;;;10.67;82.80;97872.93;109190;1255;61267;-88
2023/10/29 04:30:58;;;;;;;0.60;0.60;;;;;;;10.74;82.53;97871.18;109038;1256;72558;-89
2023/10/29 04:33:25;;;;;;;2.30;1.10;;;;;;;10.79;81.76;97869.50;108957;1256;72918;-88
2023/10/29 04:35:52;;;;;;;2.80;0.60;;;;;;;10.84;81.21;97871.98;109078;1256;71233;-88
2023/10/29 04:38:20;;;;;;;1.10;0.80;;;;;;;10.89;80.87;97877.68;109279;1256;59211;-88
2023/10/29 04:40:47;;;;;;;1.10;0.70;;;;;;;10.94;80.45;97879.66;109072;1256;59935;-89
2023/10/29 04:43:14;;;;;;;0.60;0.60;;;;;;;10.99;80.48;97880.30;109131;1256;72523;-88
2023/10/29 04:45:41;;;;;;;1.20;0.60;;;;;;;11.02;80.03;97883.60;109288;1256;72562;-88
2023/10/29 04:48:08;;;;;;;1.20;0.70;;;;;;;11.07;79.53;97885.92;109113;1256;71759;-88
2023/10/29 04:50:35;;;;;;;2.70;1.20;;;;;;;11.11;79.30;97895.43;108869;1256;60105;-87
2023/10/29 04:53:03;;;;;;;1.30;0.60;;;;;;;11.15;79.89;97891.03;108995;1256;60007;-88
2023/10/29 04:55:30;;;;;;;1.70;0.80;;;;;;;11.18;79.28;97893.27;108986;1256;73793;-87
2023/10/29 04:57:57;;;;;;;3.20;1.20;;;;;;;11.22;78.76;97894.81;108912;1256;73964;-89
2023/10/29 05:00:24;;;;;;;0.90;0.80;;;;;;;11.26;78.47;97892.34;108924;1256;72957;-88
2023/10/29 05:02:51;;;;;;;1.50;0.90;;;;;;;11.29;78.61;97889.39;109007;1256;59516;-89
2023/10/29 05:05:18;;;;;;;2.20;1.10;;;;;;;11.32;79.03;97889.11;109099;1256;60100;-88
2023/10/29 05:07:45;;;;;;;2.10;0.90;;;;;;;11.35;79.74;97893.71;109128;1256;72109;-88
2023/10/29 05:10:15;;;;;;;0.90;0.60;;;;;;;11.38;79.19;97896.39;109323;1256;72833;-87
2023/10/29 05:12:43;;;;;;;1.90;0.90;;;;;;;11.39;78.42;97897.38;109177;1256;71349;-87
2023/10/29 05:15:12;;;;;;;2.20;0.90;;;;;;;11.42;78.13;97903.95;109037;1256;61156;-88
2023/10/29 05:17:40;;;;;;;1.90;1.20;;;;;;;11.45;78.02;97906.24;108858;1256;59949;-87
2023/10/29 05:20:09;;;;;;;1.70;1.30;;;;;;;11.47;78.52;97905.32;108924;1256;72691;-87
2023/10/29 05:22:37;;;;;;;2.80;1.40;;;;;;;11.50;79.26;97902.95;108997;1256;74439;-89
2023/10/29 05:25:08;;;;;;;3.20;1.80;;;;;;;11.51;80.02;97906.08;108991;1256;72542;-88
2023/10/29 05:27:36;;;;;;;1.80;1.40;;;;;;;11.51;80.49;97911.28;108922;1256;61601;-86
2023/10/29 05:30:07;;;;;;;5.90;2.10;;;;;;;11.49;80.35;97903.01;109002;1256;59975;-87
2023/10/29 05:32:35;;;;;;;1.60;1.00;;;;;;;11.48;80.64;97905.80;109009;1256;73621;-86
2023/10/29 05:35:03;;;;;;;2.50;1.80;;;;;;;11.45;79.90;97906.76;108856;1256;75227;-88
2023/10/29 05:37:30;;;;;;;2.60;1.30;;;;;;;11.44;80.09;97906.66;108972;1256;72242;-89
2023/10/29 05:39:57;;;;;;;3.10;1.30;;;;;;;11.44;80.10;97908.28;108961;1256;59165;-89
2023/10/29 05:42:25;;;;;;;3.70;0.90;;;;;;;11.43;80.05;97910.98;108990;1256;59247;-88
2023/10/29 05:44:52;;;;;;;6.10;1.70;;;;;;;11.44;79.83;97922.38;108939;1256;73715;-88
2023/10/29 05:47:19;;;;;;;3.30;1.70;;;;;;;11.45;80.53;97930.20;108973;1256;74135;-87
2023/10/29 05:49:48;;;;;;;2.20;1.30;;;;;;;11.45;80.98;97926.99;108960;1256;71556;-88
2023/10/29 05:52:14;;;;;;;3.30;1.40;;;;;;;11.45;80.86;97928.95;109226;1256;61002;-88
2023/10/29 05:54:42;;;;;;;15.50;2.20;;;;;;;11.46;80.59;97926.40;109316;1256;58788;-88
2023/10/29 05:57:09;;;;;;;1.40;1.20;;;;;;;11.46;80.66;97925.52;109108;1256;72648;-88
2023/10/29 05:59:37;;;;;;;1.40;1.00;;;;;;;11.45;80.36;97930.42;109315;1256;74262;-87
2023/10/29 06:02:04;;;;;;;3.10;1.30;;;;;;;11.45;80.02;97928.94;109147;1256;71007;-87
2023/10/29 06:04:31;;;;;;;1.80;1.10;;;;;;;11.46;80.02;97928.37;109226;1256;60414;-87
2023/10/29 06:06:58;;;;;;;1.20;0.60;;;;;;;11.47;79.63;97928.83;109157;1256;60291;-87
2023/10/29 06:09:25;;;;;;;2.30;1.00;;;;;;;11.48;79.22;97933.77;109076;1256;71663;-88
2023/10/29 06:11:53;;;;;;;1.00;0.90;;;;;;;11.50;78.82;97937.38;109011;1256;73067;-87
2023/10/29 06:14:22;;;;;;;1.70;1.00;;;;;;;11.51;78.68;97943.00;108970;1256;74006;-89
2023/10/29 06:16:56;;;;;;;1.70;1.40;;;;;;;11.52;78.37;97944.70;108987;1256;60712;-86
2023/10/29 06:19:33;;;;;;;1.50;0.90;;;;;;;11.54;78.69;97948.52;108963;1256;61347;-88
2023/10/29 06:22:00;;;;;;;2.10;0.90;;;;;;;11.56;78.79;97949.61;108992;1256;72977;-88
2023/10/29 06:24:27;;;;;;;1.10;0.90;;;;;;;11.58;78.48;97948.17;108991;1256;74209;-88
2023/10/29 06:26:55;;;;;;;2.50;0.80;;;;;;;11.61;78.27;97951.39;108834;1256;73474;-88
2023/10/29 06:29:23;;;;;;;0.80;0.60;;;;;;;11.63;78.14;97954.81;108878;1256;59166;-88
2023/10/29 06:31:50;;;;;;;3.00;0.80;;;;;;;11.64;78.03;97948.84;108937;1256;137109;-87
2023/10/29 06:34:17;;;;;;;4.20;1.00;;;;;;;11.64;77.86;97952.89;109008;1256;74368;-87
2023/10/29 06:36:45;;;;;;;2.70;1.20;;;;;;;11.64;78.15;97952.17;108990;1256;74394;-89
2023/10/29 06:39:17;;;;;;;1.70;1.10;;;;;;;11.67;78.43;97953.27;108986;1256;72348;-88
2023/10/29 06:41:50;;;;;;;1.50;1.30;;;;;;;11.68;78.63;97956.92;108875;1256;60566;-87
2023/10/29 06:44:22;;;;;;;2.40;1.30;;;;;;;11.69;78.96;97957.33;109073;1255;58877;-87
2023/10/29 06:46:49;;;;;;;8.40;1.40;;;;;;;11.72;79.78;97953.19;109153;1256;73709;-88
2023/10/29 06:49:17;;;;;;;1.00;0.90;;;;;;;11.75;80.34;97951.14;109033;1256;74105;-88
2023/10/29 06:51:44;;;;;;;3.30;1.30;;;;;;;11.78;80.94;97953.05;109061;1255;71508;-88
2023/10/29 06:54:12;;;;;;;3.00;1.00;;;;;;;11.81;81.39;97951.20;109144;1256;59549;-86
2023/10/29 06:56:40;;;;;;;1.70;1.00;;;;;;;11.84;81.61;97957.74;109268;1255;59242;-89
2023/10/29 06:59:07;;;;;;;4.60;1.50;;;;;;;11.87;81.53;97954.59;109274;1255;72575;-86
2023/10/29 07:01:35;;;;;;;2.20;1.10;;;;;;;11.92;81.16;97954.96;109397;1255;73283;-89
2023/10/29 07:04:02;;;;;;;2.30;1.40;;;;;;;11.98;81.22;97954.16;109278;1255;71538;-88
2023/10/29 07:06:30;;;;;;;5.90;2.80;;;;;;;12.04;81.55;97953.45;109171;1255;62983;-87
2023/10/29 07:08:58;;;;;;;3.70;1.80;;;;;;;12.12;82.13;97951.92;109371;1256;59163;-86
2023/10/29 07:11:25;;;;;;;2.60;1.60;;;;;;;12.17;82.05;97951.47;109206;1255;72534;-88
2023/10/29 07:13:52;;;;;;;5.60;2.40;;;;;;;12.24;81.41;97954.83;109156;1256;72308;-88
2023/10/29 07:16:20;;;;;;;2.30;1.70;;;;;;;12.32;81.37;97948.49;109290;1256;71407;-89
2023/10/29 07:18:47;;;;;;;5.10;2.10;;;;;;;12.40;80.68;97945.45;109280;1257;58532;-88
2023/10/29 07:21:14;;;;;;;5.70;1.80;;;;;;;12.48;80.36;97948.52;109360;1255;59271;-88
2023/10/29 07:23:42;;;;;;;4.30;1.90;;;;;;;12.57;79.99;97955.54;109245;1256;72873;-88
2023/10/29 07:26:10;;;;;;;1.30;1.20;;;;;;;12.63;79.59;97953.57;109346;1255;74515;-87
2023/10/29 07:28:41;;;;;;;1.80;0.90;;;;;;;12.69;79.40;97948.95;109203;1256;71395;-86
2023/10/29 07:31:09;;;;;;;3.00;1.10;;;;;;;12.75;79.16;97953.48;108939;1256;61630;-87
2023/10/29 07:33:41;;;;;;;3.20;1.70;;;;;;;12.81;79.12;97954.17;109006;1256;60127;-88
2023/10/29 07:36:10;;;;;;;1.10;1.00;;;;;;;12.88;78.84;97959.14;108974;1256;73603;-87
2023/10/29 07:38:40;;;;;;;2.90;1.50;;;;;;;12.93;78.10;97954.38;108976;1256;75568;-88
2023/10/29 07:41:08;;;;;;;2.30;1.10;;;;;;;13.01;78.02;97957.55;108843;1256;72493;-87
2023/10/29 07:43:41;;;;;;;3.30;1.20;;;;;;;13.09;78.66;97954.02;108965;1256;59244;-88
2023/10/29 07:46:20;;;;;;;7.20;1.60;;;;;;;13.16;78.78;97958.21;108872;1256;59086;-88
2023/10/29 07:48:49;;;;;;;2.30;0.80;;;;;;;13.22;78.76;97953.15;108882;1256;74248;-88
2023/10/29 07:51:16;;;;;;;3.50;1.00;;;;;;;13.28;78.02;97955.30;108949;1256;74294;-88
2023/10/29 07:53:43;;;;;;;1.80;1.10;;;;;;;13.34;77.66;97952.15;108893;1256;71794;-87
2023/10/29 07:56:12;;;;;;;1.60;0.70;;;;;;;13.40;77.10;97951.65;108995;1256;58977;-88
2023/10/29 07:58:39;;;;;;;1.00;0.80;;;;;;;13.46;76.61;97950.25;108952;1256;60263;-87
2023/10/29 08:01:14;;;;;;;2.10;1.20;;;;;;;13.50;76.12;97949.72;109022;1256;71985;-87
2023/10/29 08:03:42;;;;;;;1.50;0.90;;;;;;;13.52;75.16;97950.90;109004;1256;72148;-87
2023/10/29 08:06:10;;;;;;;2.20;0.70;;;;;;;13.56;74.94;97951.83;109087;1256;71337;-85
2023/10/29 08:08:38;;;;;;;1.40;1.10;;;;;;;13.61;74.87;97953.24;108980;1256;62773;-86
2023/10/29 08:11:05;;;;;;;1.70;0.90;;;;;;;13.64;74.24;97952.42;108986;1256;60197;-86
2023/10/29 08:13:32;;;;;;;1.60;1.00;;;;;;;13.67;73.49;97957.48;109078;1256;73486;-86
2023/10/29 08:16:01;;;;;;;2.40;1.30;;;;;;;13.72;73.21;97951.45;109060;1256;73757;-87
2023/10/29 08:20:07;;;;;;;3.90;0.70;;;;;;;13.81;73.09;97946.42;105676;1293;601271;-87
2023/10/29 08:22:35;;;;;;;1.10;0.90;;;;;;;13.84;73.01;97947.97;108565;1266;59907;-86
2023/10/29 08:25:02;;;;;;;0.90;0.80;;;;;;;13.88;72.74;97946.19;108563;1267;58941;-86
2023/10/29 08:27:29;;;;;;;3.60;0.80;;;;;;;13.92;72.15;97946.89;108888;1259;71071;-85
2023/10/29 08:29:57;;;;;;;0.70;0.60;;;;;;;13.96;71.67;97946.34;109010;1259;72336;-87
2023/10/29 08:32:25;;;;;;;1.50;0.60;;;;;;;14.00;71.14;97952.06;108943;1259;71397;-88
2023/10/29 08:34:52;;;;;;;3.30;1.20;;;;;;;14.04;70.93;97948.95;109258;1253;102132;-87
2023/10/29 08:37:20;;;;;;;1.00;0.70;;;;;;;14.10;70.23;97946.08;109362;1253;59132;-87
2023/10/29 08:39:48;;;;;;;2.00;0.80;;;;;;;14.17;68.52;97946.75;109258;1253;70957;-86
2023/10/29 08:42:15;;;;;;;2.20;1.00;;;;;;;14.23;67.26;97945.27;109356;1253;73141;-87
2023/10/29 08:44:43;;;;;;;1.20;0.40;;;;;;;14.30;66.63;97936.56;109253;1253;71404;-88
2023/10/29 08:47:11;;;;;;;1.60;0.70;;;;;;;14.38;66.79;97941.36;109401;1253;59128;-85
2023/10/29 08:49:38;;;;;;;2.30;0.50;;;;;;;14.46;66.47;97940.37;109325;1253;58825;-86
2023/10/29 08:52:05;;;;;;;3.40;0.80;;;;;;;14.53;66.15;97945.26;109353;1253;71677;-86
2023/10/29 08:54:33;;;;;;;2.90;0.90;;;;;;;14.61;65.19;97945.11;109421;1253;73054;-86
2023/10/29 08:57:00;;;;;;;6.70;2.40;;;;;;;14.69;65.10;97948.46;109124;1254;71850;-86
2023/10/29 08:59:28;;;;;;;2.40;0.90;;;;;;;14.79;64.93;97949.17;109507;1253;60038;-87
2023/10/29 09:01:55;;;;;;;5.60;1.30;;;;;;;14.89;65.31;97938.20;109551;1253;60139;-88
2023/10/29 09:04:23;;;;;;;0.70;0.70;;;;;;;14.98;65.54;97944.10;109574;1253;71778;-89
2023/10/29 09:06:50;;;;;;;2.70;0.70;;;;;;;15.10;64.61;97950.61;109547;1253;72971;-87
2023/10/29 09:09:17;;;;;;;1.50;0.80;;;;;;;15.20;63.93;97944.08;109535;1253;71100;-87
2023/10/29 09:11:46;;;;;;;1.30;0.60;;;;;;;15.30;64.39;97934.27;109439;1253;58506;-89
2023/10/29 09:14:14;;;;;;;2.90;1.10;;;;;;;15.39;64.11;97938.27;109413;1254;60189;-89
2023/10/29 09:16:44;;;;;;;1.90;0.70;;;;;;;15.47;64.22;97935.84;109339;1254;71972;-89
2023/10/29 09:19:15;;;;;;;1.30;0.90;;;;;;;15.56;64.25;97946.40;109379;1254;72860;-85
2023/10/29 09:21:43;;;;;;;5.00;1.30;;;;;;;15.65;63.29;97950.56;109273;1254;72295;-91
2023/10/29 09:24:10;;;;;;;3.80;1.40;;;;;;;15.74;62.79;97949.85;109161;1254;59592;-85
2023/10/29 09:26:37;;;;;;;3.60;0.80;;;;;;;15.82;62.83;97941.17;109211;1254;60247;-85
2023/10/29 09:29:10;;;;;;;1.90;0.70;;;;;;;15.90;62.48;97969.50;109334;1253;72157;-87
2023/10/29 09:31:40;;;;;;;2.30;0.90;;;;;;;15.96;62.32;97966.52;109292;1254;74458;-85
2023/10/29 09:34:08;;;;;;;2.10;1.00;;;;;;;16.02;62.22;97951.36;109296;1254;71462;-88
2023/10/29 09:36:37;;;;;;;2.60;1.00;;;;;;;16.07;62.22;97964.89;109360;1254;59071;-87
2023/10/29 09:39:08;;;;;;;4.50;1.80;;;;;;;16.14;62.26;97948.00;109312;1254;58620;-84
2023/10/29 09:41:37;;;;;;;2.50;1.30;;;;;;;16.21;62.17;97951.71;109359;1254;72748;-84
2023/10/29 09:44:10;;;;;;;2.40;1.40;;;;;;;16.28;61.84;97957.08;109329;1254;73016;-87
2023/10/29 09:46:38;;;;;;;1.20;0.80;;;;;;;16.36;61.49;97935.80;109369;1255;72455;-86
2023/10/29 09:49:06;;;;;;;2.10;1.10;;;;;;;16.43;61.50;97956.61;109238;1254;59119;-84
2023/10/29 09:51:37;;;;;;;2.70;1.10;;;;;;;16.52;61.29;97956.11;109279;1255;59988;-85
2023/10/29 09:54:04;;;;;;;1.80;1.00;;;;;;;16.56;61.38;97956.35;109236;1254;73117;-87
2023/10/29 09:56:33;;;;;;;2.20;1.20;;;;;;;16.65;61.13;97952.83;109312;1254;73827;-85
2023/10/29 09:59:04;;;;;;;2.40;1.20;;;;;;;16.74;61.09;97952.27;109244;1254;71421;-85
2023/10/29 10:01:32;;;;;;;2.60;1.10;;;;;;;16.82;60.62;97947.94;109323;1254;59376;-86
2023/10/29 10:04:10;;;;;;;1.90;1.10;;;;;;;16.94;60.69;97935.02;109233;1254;59173;-86
2023/10/29 10:06:38;;;;;;;2.20;1.60;;;;;;;17.07;60.67;97929.42;109394;1254;71580;-87
2023/10/29 10:09:10;;;;;;;3.90;2.20;;;;;;;17.19;60.22;97928.70;109464;1253;73183;-87
2023/10/29 10:11:38;;;;;;;2.80;1.80;;;;;;;17.34;59.95;97926.41;109254;1254;71777;-88
2023/10/29 10:14:06;;;;;;;1.60;1.10;;;;;;;17.51;59.58;97928.97;109458;1254;58820;-88
2023/10/29 10:16:35;;;;;;;2.10;1.30;;;;;;;17.67;58.99;97923.79;109437;1254;59027;-85
2023/10/29 10:19:03;;;;;;;1.70;1.00;;;;;;;17.85;58.43;97925.34;109446;1254;72588;-85
2023/10/29 10:21:41;;;;;;;1.60;1.20;;;;;;;18.04;58.01;97921.20;109369;1254;73148;-88
2023/10/29 10:24:08;;;;;;;1.70;1.30;;;;;;;18.22;57.21;97927.73;109479;1254;72108;-87
2023/10/29 10:26:40;;;;;;;4.20;1.20;;;;;;;18.35;56.58;97929.77;109467;1254;59070;-86
2023/10/29 10:29:08;;;;;;;2.50;1.10;;;;;;;18.48;56.80;97916.11;109300;1254;59189;-87
2023/10/29 10:31:38;;;;;;;1.50;1.20;;;;;;;18.62;56.66;97920.55;109459;1254;72092;-86
2023/10/29 10:34:10;;;;;;;2.00;1.20;;;;;;;18.75;55.94;97920.49;109236;1254;73437;-87
2023/10/29 10:36:37;;;;;;;1.60;1.40;;;;;;;18.92;56.19;97915.60;109370;1254;71388;-86
2023/10/29 10:39:05;;;;;;;1.40;1.30;;;;;;;19.09;55.31;97919.85;109423;1254;59069;-86
2023/10/29 10:41:43;;;;;;;3.30;1.30;;;;;;;19.25;54.62;97916.60;109291;1254;58812;-87
2023/10/29 10:44:14;;;;;;;4.10;1.30;;;;;;;19.38;54.39;97918.42;109335;1254;72001;-88
2023/10/29 10:46:50;;;;;;;3.10;1.40;;;;;;;19.48;54.05;97912.16;109444;1254;73332;-90
2023/10/29 10:49:31;;;;;;;1.60;1.20;;;;;;;19.59;53.53;97918.79;109481;1254;72248;-88
2023/10/29 10:52:02;;;;;;;9.10;6.70;;;;;;;19.69;53.06;97915.50;109103;1256;60814;-87
2023/10/29 10:54:29;;;;;;;2.80;1.90;;;;;;;19.80;52.94;97902.22;109187;1255;60339;-87
2023/10/29 10:56:56;;;;;;;7.30;4.90;;;;;;;19.95;52.55;97910.63;109268;1254;71719;-86
2023/10/29 10:59:24;;;;;;;3.80;2.20;;;;;;;20.11;51.69;97906.13;109110;1253;72218;-88
2023/10/29 11:01:52;;;;;;;3.80;1.90;;;;;;;20.27;51.81;97911.48;109219;1254;71239;-87
2023/10/29 11:04:19;;;;;;;3.20;1.90;;;;;;;20.42;51.01;97910.16;109175;1254;58952;-88
2023/10/29 11:06:47;;;;;;;3.20;1.70;;;;;;;20.49;48.96;97911.77;109234;1254;60264;-87
2023/10/29 11:09:17;;;;;;;3.70;2.30;;;;;;;20.47;49.04;97904.05;109283;1254;72442;-87
2023/10/29 11:12:11;;;;;;;3.30;2.50;;;;;;;20.44;49.29;97903.52;109094;1254;75055;-87
2023/10/29 11:15:01;;;;;;;2.40;2.00;;;;;;;20.47;49.38;97887.89;109018;1254;72735;-87
2023/10/29 11:17:52;;;;;;;4.90;2.00;;;;;;;20.59;48.57;97897.17;108771;1259;60963;-88
2023/10/29 11:21:07;;;;;;;3.90;2.40;;;;;;;20.68;48.24;97881.48;108747;1259;60165;-88
2023/10/29 11:23:40;;;;;;;4.30;2.50;;;;;;;20.80;47.62;97877.86;108583;1263;71806;-86
2023/10/29 11:26:28;;;;;;;4.00;2.40;;;;;;;20.87;48.25;97873.63;108546;1264;73067;-86
2023/10/29 11:28:57;;;;;;;3.20;1.90;;;;;;;21.01;47.44;97883.38;108931;1254;73742;-88
2023/10/29 11:31:27;;;;;;;7.80;2.20;;;;;;;21.11;46.95;97884.41;108971;1255;60094;-88